CCY5 weather

Edmundston (Regional Hospital) Heliport
Edmundston, New Brunswick, Canada

Public forecast

Using degrees Celsius for public forecast. Weather courtesy of forecast.io.

METAR (pilot weather report)

Closest report is Northern Aroostook Regional Airport, 5.5 nm (10.1 km) S. Retrieved 2019/05/27 12:53 UTC (10 minutes ago):

KFVE 271253Z AUTO 32011KT 10SM BKN033 11/02 A2988 RMK AO2 SLP119 T01060017

TAF (pilot weather forecast)

Closest forecast is Northern Aroostook Regional Airport, 5.5 nm (10.1 km) S. Retrieved 2019/05/27 12:22 UTC (41 minutes ago):

TAF KFVE 271120Z 2712/2812 32006KT P6SM BKN035 FM271400 30010KT P6SM FEW070 FM280600 29004KT P6SM FEW190